createdAt,value
2018-06-25T00:01:17.295Z,6.77
2018-06-25T00:03:44.990Z,6.23
2018-06-25T00:06:12.475Z,3.93
2018-06-25T00:08:40.814Z,3.40
2018-06-25T00:11:08.249Z,3.93
2018-06-25T00:13:35.725Z,7.33
2018-06-25T00:16:03.555Z,5.70
2018-06-25T00:18:31.278Z,7.47
2018-06-25T00:20:58.772Z,7.00
2018-06-25T00:23:26.194Z,5.63
2018-06-25T00:25:53.677Z,4.70
2018-06-25T00:28:21.081Z,4.70
2018-06-25T00:30:48.578Z,5.83
2018-06-25T00:33:16.009Z,7.53
2018-06-25T00:35:43.455Z,8.53
2018-06-25T00:38:10.914Z,5.73
2018-06-25T00:40:38.415Z,6.43
2018-06-25T00:43:05.942Z,5.83
2018-06-25T00:45:33.408Z,8.50
2018-06-25T00:48:00.902Z,8.27
2018-06-25T00:50:28.374Z,7.43
2018-06-25T00:52:55.849Z,6.80
2018-06-25T00:55:23.333Z,9.30
2018-06-25T00:57:50.966Z,8.37
2018-06-25T01:00:18.458Z,9.63
2018-06-25T01:02:45.918Z,11.47
2018-06-25T01:05:13.352Z,8.60
2018-06-25T01:07:40.828Z,8.10
2018-06-25T01:10:08.314Z,9.23
2018-06-25T01:12:35.773Z,11.33
2018-06-25T01:15:03.886Z,8.43
2018-06-25T01:17:31.331Z,13.33
2018-06-25T01:19:58.795Z,7.00
2018-06-25T01:22:26.250Z,11.20
2018-06-25T01:24:53.689Z,8.40
2018-06-25T01:27:21.176Z,8.83
2018-06-25T01:29:48.664Z,13.13
2018-06-25T01:32:16.186Z,11.27
2018-06-25T01:34:43.605Z,9.33
2018-06-25T01:37:11.119Z,12.07
2018-06-25T01:39:38.613Z,9.73
2018-06-25T01:42:06.422Z,10.50
2018-06-25T01:44:33.907Z,17.77
2018-06-25T01:47:01.350Z,10.63
2018-06-25T01:49:28.892Z,10.97
2018-06-25T01:51:56.297Z,10.20
2018-06-25T01:54:23.766Z,14.53
2018-06-25T01:56:51.203Z,9.80
2018-06-25T01:59:18.716Z,10.70
2018-06-25T02:01:46.177Z,10.33
2018-06-25T02:04:13.633Z,7.83
2018-06-25T02:06:41.093Z,11.90
2018-06-25T02:09:10.797Z,11.60
2018-06-25T02:11:38.563Z,14.20
2018-06-25T02:14:06.102Z,19.13
2018-06-25T02:16:33.537Z,13.57
2018-06-25T02:19:01.072Z,12.43
2018-06-25T02:21:28.778Z,14.07
2018-06-25T02:23:56.281Z,12.47
2018-06-25T02:26:23.754Z,9.07
2018-06-25T02:28:51.203Z,10.60
2018-06-25T02:31:18.722Z,10.10
2018-06-25T02:33:46.208Z,12.73
2018-06-25T02:36:13.710Z,14.37
2018-06-25T02:38:41.255Z,16.83
2018-06-25T02:41:08.667Z,15.43
2018-06-25T02:43:36.205Z,15.03
2018-06-25T02:46:03.869Z,12.77
2018-06-25T02:48:31.676Z,12.20
2018-06-25T02:50:59.408Z,9.13
2018-06-25T02:53:26.891Z,12.00
2018-06-25T02:55:54.318Z,13.23
2018-06-25T02:58:21.811Z,16.43
2018-06-25T03:00:49.382Z,9.97
2018-06-25T03:03:16.836Z,11.30
2018-06-25T03:05:44.349Z,13.50
2018-06-25T03:08:11.909Z,9.30
2018-06-25T03:10:39.554Z,13.97
2018-06-25T03:13:07.049Z,10.30
2018-06-25T03:15:34.661Z,10.90
2018-06-25T03:18:02.152Z,9.73
2018-06-25T03:20:29.674Z,11.47
2018-06-25T03:22:57.110Z,6.87
2018-06-25T03:25:24.643Z,7.67
2018-06-25T03:27:52.134Z,9.73
2018-06-25T03:30:19.604Z,10.80
2018-06-25T03:32:47.086Z,12.80
2018-06-25T03:35:14.567Z,8.20
2018-06-25T03:37:41.995Z,10.20
2018-06-25T03:40:09.623Z,8.40
2018-06-25T03:42:37.150Z,15.33
2018-06-25T03:45:04.634Z,14.77
2018-06-25T03:47:32.117Z,9.67
2018-06-25T03:49:59.554Z,9.83
2018-06-25T03:52:27.057Z,11.80
2018-06-25T03:54:54.481Z,14.37
2018-06-25T03:57:21.996Z,13.37
2018-06-25T03:59:49.457Z,7.90
2018-06-25T04:02:17.003Z,17.70
2018-06-25T04:04:44.447Z,16.43
2018-06-25T04:07:11.911Z,10.90
2018-06-25T04:09:39.358Z,13.57
2018-06-25T04:12:06.934Z,11.30
2018-06-25T04:14:34.355Z,14.43
2018-06-25T04:17:02.002Z,11.40
2018-06-25T04:19:29.558Z,12.33
2018-06-25T04:21:57.002Z,13.50
2018-06-25T04:24:24.460Z,14.73
2018-06-25T04:26:51.933Z,12.37
2018-06-25T04:29:19.341Z,15.33
2018-06-25T04:31:46.863Z,10.57
2018-06-25T04:34:14.335Z,15.77
2018-06-25T04:36:41.833Z,12.37
2018-06-25T04:39:10.085Z,14.67
2018-06-25T04:41:37.778Z,12.60
2018-06-25T04:44:05.559Z,11.17
2018-06-25T04:46:33.936Z,15.40
2018-06-25T04:49:01.454Z,8.80
2018-06-25T04:51:28.970Z,14.20
2018-06-25T04:53:56.435Z,12.73
2018-06-25T04:56:23.861Z,11.93
2018-06-25T04:58:51.352Z,11.30
2018-06-25T05:01:18.958Z,13.40
2018-06-25T05:03:46.286Z,14.17
2018-06-25T05:06:13.861Z,18.17
2018-06-25T05:08:41.348Z,20.47
2018-06-25T05:11:08.875Z,13.90
2018-06-25T05:13:36.357Z,15.43
2018-06-25T05:16:04.270Z,22.13
2018-06-25T05:18:31.738Z,15.97
2018-06-25T05:20:59.258Z,16.17
2018-06-25T05:23:26.676Z,17.50
2018-06-25T05:25:54.269Z,14.73
2018-06-25T05:28:21.762Z,13.70
2018-06-25T05:30:49.374Z,11.73
2018-06-25T05:33:16.849Z,12.37
2018-06-25T05:35:44.338Z,22.17
2018-06-25T05:38:11.794Z,14.07
2018-06-25T05:40:39.204Z,13.40
2018-06-25T05:43:06.807Z,19.90
2018-06-25T05:45:34.333Z,13.60
2018-06-25T05:48:01.798Z,13.20
2018-06-25T05:50:29.475Z,23.70
2018-06-25T05:52:57.017Z,24.27
2018-06-25T05:55:24.477Z,12.10
2018-06-25T05:57:52.008Z,17.43
2018-06-25T06:00:19.573Z,19.50
2018-06-25T06:02:47.659Z,16.53
2018-06-25T06:05:15.204Z,15.63
2018-06-25T06:07:42.692Z,19.47
2018-06-25T06:10:10.182Z,15.00
2018-06-25T06:12:37.727Z,14.10
2018-06-25T06:15:05.250Z,16.23
2018-06-25T06:17:32.776Z,19.43
2018-06-25T06:20:00.295Z,15.20
2018-06-25T06:22:27.713Z,15.80
2018-06-25T06:24:55.254Z,23.80
2018-06-25T06:27:22.972Z,21.07
2018-06-25T06:29:50.465Z,13.20
2018-06-25T06:32:18.058Z,13.83
2018-06-25T06:34:45.502Z,18.73
2018-06-25T06:37:12.998Z,21.97
2018-06-25T06:39:40.573Z,14.37
2018-06-25T06:42:08.060Z,18.33
2018-06-25T06:44:35.446Z,21.20
2018-06-25T06:47:02.877Z,16.83
2018-06-25T06:49:30.381Z,12.70
2018-06-25T06:51:57.846Z,18.77
2018-06-25T06:54:26.193Z,13.43
2018-06-25T06:56:53.678Z,16.80
2018-06-25T06:59:21.148Z,14.60
2018-06-25T07:01:48.619Z,17.47
2018-06-25T07:04:16.061Z,15.60
2018-06-25T07:06:43.556Z,15.53
2018-06-25T07:09:12.611Z,15.07
2018-06-25T07:11:40.348Z,21.17
2018-06-25T07:14:08.443Z,20.40
2018-06-25T07:16:36.207Z,17.10
2018-06-25T07:19:03.769Z,13.37
2018-06-25T07:21:31.479Z,23.47
2018-06-25T07:23:59.033Z,19.70
2018-06-25T07:26:26.591Z,17.90
2018-06-25T07:28:55.221Z,14.20
2018-06-25T07:31:23.014Z,19.10
2018-06-25T07:33:50.512Z,17.07
2018-06-25T07:36:17.975Z,20.10
2018-06-25T07:38:45.718Z,25.63
2018-06-25T07:41:13.993Z,16.00
2018-06-25T07:43:41.454Z,19.57
2018-06-25T07:46:08.885Z,19.97
2018-06-25T07:48:36.349Z,19.30
2018-06-25T07:51:03.884Z,18.67
2018-06-25T07:53:31.541Z,15.87
2018-06-25T07:55:59.051Z,14.87
2018-06-25T07:58:26.522Z,19.37
2018-06-25T08:00:54.016Z,14.90
2018-06-25T08:03:21.796Z,12.37
2018-06-25T08:05:49.294Z,15.63
2018-06-25T08:08:16.758Z,16.47
2018-06-25T08:10:44.182Z,13.60
2018-06-25T08:13:11.675Z,11.93
2018-06-25T08:15:39.146Z,12.80
2018-06-25T08:18:06.842Z,12.50
2018-06-25T08:20:34.366Z,12.53
2018-06-25T08:23:01.859Z,16.50
2018-06-25T08:25:29.249Z,12.10
2018-06-25T08:27:56.807Z,15.03
2018-06-25T08:30:24.281Z,15.80
2018-06-25T08:32:52.369Z,12.83
2018-06-25T08:35:19.930Z,14.13
2018-06-25T08:37:47.424Z,18.77
2018-06-25T08:40:15.025Z,15.33
2018-06-25T08:42:42.583Z,15.60
2018-06-25T08:45:10.103Z,18.70
2018-06-25T08:47:37.637Z,14.57
2018-06-25T08:50:05.347Z,13.00
2018-06-25T08:52:32.914Z,14.63
2018-06-25T08:55:00.494Z,15.43
2018-06-25T08:57:27.968Z,13.77
2018-06-25T08:59:55.362Z,12.37
2018-06-25T09:02:22.785Z,16.00
2018-06-25T09:04:50.479Z,10.47
2018-06-25T09:07:17.943Z,16.00
2018-06-25T09:09:45.517Z,10.83
2018-06-25T09:12:12.982Z,10.10
2018-06-25T09:14:40.511Z,13.03
2018-06-25T09:17:07.963Z,7.90
2018-06-25T09:19:35.610Z,11.40
2018-06-25T09:22:03.972Z,17.03
2018-06-25T09:24:31.610Z,13.87
2018-06-25T09:26:59.318Z,8.70
2018-06-25T09:29:26.789Z,6.23
2018-06-25T09:31:54.268Z,12.47
2018-06-25T09:34:27.477Z,6.90
2018-06-25T09:36:54.931Z,8.37
2018-06-25T09:39:22.392Z,6.67
2018-06-25T09:41:49.879Z,8.67
2018-06-25T09:44:17.290Z,9.90
2018-06-25T09:46:44.822Z,7.60
2018-06-25T09:49:12.281Z,13.13
2018-06-25T09:51:39.676Z,7.67
2018-06-25T09:54:07.207Z,15.97
2018-06-25T09:56:34.722Z,9.47
2018-06-25T09:59:02.239Z,9.37
2018-06-25T10:01:29.661Z,12.73
2018-06-25T10:03:57.093Z,7.87
2018-06-25T10:06:24.521Z,7.43
2018-06-25T10:08:52.046Z,9.07
2018-06-25T10:11:19.512Z,9.50
2018-06-25T10:13:47.407Z,10.20
2018-06-25T10:16:14.819Z,8.50
2018-06-25T10:18:42.307Z,9.40
2018-06-25T10:21:09.797Z,6.40
2018-06-25T10:23:37.240Z,8.33
2018-06-25T10:26:04.885Z,6.70
2018-06-25T10:28:32.364Z,7.90
2018-06-25T10:30:59.842Z,6.70
2018-06-25T10:33:27.339Z,15.13
2018-06-25T10:35:54.775Z,5.83
2018-06-25T10:38:22.249Z,9.03
2018-06-25T10:40:49.652Z,6.93
2018-06-25T10:43:17.121Z,12.00
2018-06-25T10:45:44.623Z,9.60
2018-06-25T10:48:12.110Z,10.43
2018-06-25T10:50:39.533Z,9.43
2018-06-25T10:53:07.017Z,15.17
2018-06-25T10:55:34.480Z,12.17
2018-06-25T10:58:01.972Z,13.30
2018-06-25T11:00:29.485Z,7.90
2018-06-25T11:02:57.004Z,17.33
2018-06-25T11:05:24.450Z,16.43
2018-06-25T11:07:52.001Z,11.43
2018-06-25T11:10:19.557Z,11.10
2018-06-25T11:12:47.066Z,7.00
2018-06-25T11:15:14.505Z,14.80
2018-06-25T11:17:41.977Z,9.50
2018-06-25T11:20:09.434Z,8.87
2018-06-25T11:22:36.979Z,7.87
2018-06-25T11:25:04.620Z,5.97
2018-06-25T11:27:32.230Z,7.17
2018-06-25T11:29:59.593Z,10.37
2018-06-25T11:32:27.062Z,9.00
2018-06-25T11:34:54.525Z,7.03
2018-06-25T11:37:22.118Z,10.10
2018-06-25T11:39:49.643Z,8.10
2018-06-25T11:42:17.069Z,9.13
2018-06-25T11:44:44.517Z,7.50
2018-06-25T11:47:11.997Z,5.20
2018-06-25T11:49:39.482Z,5.43
2018-06-25T11:52:06.914Z,7.23
2018-06-25T11:54:34.420Z,9.13
2018-06-25T11:57:01.896Z,13.17
2018-06-25T11:59:29.358Z,7.30
2018-06-25T12:01:57.015Z,7.07
2018-06-25T12:04:24.311Z,12.70
2018-06-25T12:06:51.778Z,10.40
2018-06-25T12:09:19.284Z,6.73
2018-06-25T12:11:46.748Z,6.63
2018-06-25T12:14:14.289Z,6.90
2018-06-25T12:16:41.704Z,5.83
2018-06-25T12:19:09.295Z,6.53
2018-06-25T12:21:36.635Z,7.53
2018-06-25T12:24:04.297Z,6.30
2018-06-25T12:26:31.870Z,8.97
2018-06-25T12:28:59.363Z,8.73
2018-06-25T12:31:26.891Z,5.13
2018-06-25T12:33:54.363Z,5.30
2018-06-25T12:36:21.880Z,4.43
2018-06-25T12:38:49.346Z,6.83
2018-06-25T12:41:16.853Z,6.93
2018-06-25T12:43:44.291Z,7.00
2018-06-25T12:46:11.750Z,6.37
2018-06-25T12:48:39.218Z,4.13
2018-06-25T12:51:06.770Z,4.47
2018-06-25T12:53:34.256Z,9.07
2018-06-25T12:56:01.803Z,3.53
2018-06-25T12:58:29.375Z,9.03
2018-06-25T13:00:56.785Z,6.80
2018-06-25T13:03:24.298Z,7.10
2018-06-25T13:05:51.754Z,7.27
2018-06-25T13:08:19.157Z,6.30
2018-06-25T13:10:46.690Z,9.40
2018-06-25T13:13:14.126Z,6.27
2018-06-25T13:15:41.635Z,7.87
2018-06-25T13:18:09.230Z,11.50
2018-06-25T13:20:36.773Z,6.77
2018-06-25T13:23:04.335Z,8.10
2018-06-25T13:25:32.019Z,7.53
2018-06-25T13:27:59.501Z,12.50
2018-06-25T13:30:26.998Z,15.83
2018-06-25T13:32:54.503Z,8.10
2018-06-25T13:35:22.062Z,5.57
2018-06-25T13:37:49.593Z,7.67
2018-06-25T13:40:17.006Z,9.60
2018-06-25T13:42:44.474Z,6.33
2018-06-25T13:45:11.988Z,7.50
2018-06-25T13:47:39.458Z,9.17
2018-06-25T13:50:06.911Z,6.73
2018-06-25T13:52:34.432Z,10.73
2018-06-25T13:55:01.864Z,10.00
2018-06-25T13:57:29.541Z,8.73
2018-06-25T13:59:57.071Z,12.33
2018-06-25T14:02:24.559Z,13.27
2018-06-25T14:04:51.954Z,10.50
2018-06-25T14:07:19.413Z,8.93
2018-06-25T14:09:46.943Z,11.53
2018-06-25T14:12:14.411Z,7.90
2018-06-25T14:14:42.144Z,12.20
2018-06-25T14:17:09.721Z,10.57
2018-06-25T14:19:37.215Z,14.00
2018-06-25T14:22:04.903Z,9.23
2018-06-25T14:24:38.141Z,9.57
2018-06-25T14:27:11.549Z,11.13
2018-06-25T14:29:39.026Z,7.80
2018-06-25T14:32:14.431Z,8.17
2018-06-25T14:34:42.363Z,8.13
2018-06-25T14:37:10.655Z,12.97
2018-06-25T14:39:38.120Z,10.33
2018-06-25T14:42:05.850Z,7.70
2018-06-25T14:44:33.405Z,8.83
2018-06-25T14:47:00.942Z,17.23
2018-06-25T14:49:28.377Z,9.37
2018-06-25T14:51:55.913Z,4.50
2018-06-25T14:54:23.324Z,10.07
2018-06-25T14:56:50.755Z,13.70
2018-06-25T14:59:18.318Z,5.30
2018-06-25T15:01:45.802Z,7.57
2018-06-25T15:04:13.283Z,6.83
2018-06-25T15:06:40.940Z,8.13
2018-06-25T15:09:10.245Z,5.53
2018-06-25T15:11:37.728Z,4.90
2018-06-25T15:14:05.718Z,7.30
2018-06-25T15:16:33.169Z,11.33
2018-06-25T15:19:00.975Z,3.47
2018-06-25T15:21:28.697Z,4.57
2018-06-25T15:23:56.430Z,4.33
2018-06-25T15:26:23.898Z,6.00
2018-06-25T15:28:51.621Z,3.23
2018-06-25T15:31:19.054Z,5.40
2018-06-25T15:33:46.698Z,4.77
2018-06-25T15:36:14.266Z,2.93
2018-06-25T15:38:42.021Z,9.30
2018-06-25T15:41:09.840Z,5.57
2018-06-25T15:43:37.290Z,4.53
2018-06-25T15:46:05.033Z,6.80
2018-06-25T15:48:32.496Z,5.03
2018-06-25T15:51:00.234Z,2.40
2018-06-25T15:53:27.707Z,9.50
2018-06-25T15:55:55.160Z,6.60
2018-06-25T15:58:22.887Z,5.30
2018-06-25T16:00:50.433Z,6.20
2018-06-25T16:03:18.025Z,5.20
2018-06-25T16:05:45.525Z,7.83
2018-06-25T16:08:13.045Z,5.10
2018-06-25T16:10:40.554Z,3.83
2018-06-25T16:13:08.318Z,4.27
2018-06-25T16:15:35.828Z,3.40
2018-06-25T16:18:03.543Z,4.37
2018-06-25T16:20:31.246Z,6.27
2018-06-25T16:22:58.987Z,5.90
2018-06-25T16:25:26.844Z,2.57
2018-06-25T16:27:54.304Z,4.53
2018-06-25T16:30:22.053Z,3.50
2018-06-25T16:32:49.649Z,3.33
2018-06-25T16:35:17.448Z,4.40
2018-06-25T16:37:45.335Z,7.23
2018-06-25T16:40:12.937Z,2.20
2018-06-25T16:42:41.163Z,4.93
2018-06-25T16:45:08.967Z,5.13
2018-06-25T16:47:36.371Z,8.30
2018-06-25T16:50:04.925Z,4.33
2018-06-25T16:52:33.053Z,4.60
2018-06-25T16:55:00.608Z,3.10
2018-06-25T16:57:28.195Z,2.23
2018-06-25T16:59:55.625Z,3.60
2018-06-25T17:02:23.818Z,4.30
2018-06-25T17:04:51.519Z,3.57
2018-06-25T17:07:19.574Z,3.50
2018-06-25T17:09:47.173Z,5.43
2018-06-25T17:12:14.691Z,2.93
2018-06-25T17:14:42.286Z,4.73
2018-06-25T17:17:09.957Z,3.40
2018-06-25T17:19:37.503Z,3.63
2018-06-25T17:22:05.153Z,3.90
2018-06-25T17:24:32.617Z,5.43
2018-06-25T17:27:00.111Z,5.97
2018-06-25T17:29:27.792Z,4.30
2018-06-25T17:31:55.415Z,2.00
2018-06-25T17:34:22.971Z,3.53
2018-06-25T17:36:50.539Z,3.53
2018-06-25T17:39:18.000Z,5.73
2018-06-25T17:41:45.483Z,6.20
2018-06-25T17:44:13.101Z,2.70
2018-06-25T17:46:40.904Z,4.10
2018-06-25T17:49:08.434Z,5.87
2018-06-25T17:51:36.466Z,3.93
2018-06-25T17:54:04.353Z,8.33
2018-06-25T17:56:31.979Z,3.67
2018-06-25T17:58:59.422Z,6.30
2018-06-25T18:01:26.897Z,10.33
2018-06-25T18:03:54.438Z,5.37
2018-06-25T18:06:22.074Z,4.50
2018-06-25T18:08:49.583Z,6.73
2018-06-25T18:11:17.116Z,3.37
2018-06-25T18:13:44.586Z,4.83
2018-06-25T18:16:12.591Z,3.80
2018-06-25T18:18:40.057Z,4.90
2018-06-25T18:21:07.573Z,2.57
2018-06-25T18:23:35.345Z,3.83
2018-06-25T18:26:02.951Z,2.80
2018-06-25T18:28:31.039Z,3.77
2018-06-25T18:30:58.553Z,7.67
2018-06-25T18:33:26.405Z,4.37
2018-06-25T18:35:53.932Z,4.10
2018-06-25T18:38:21.486Z,3.50
2018-06-25T18:40:48.971Z,4.77
2018-06-25T18:43:16.672Z,4.83
2018-06-25T18:45:44.164Z,2.33
2018-06-25T18:48:11.777Z,7.30
2018-06-25T18:50:39.263Z,4.10
2018-06-25T18:53:06.706Z,4.70
2018-06-25T18:55:34.239Z,6.33
2018-06-25T18:58:01.711Z,4.23
2018-06-25T19:00:29.214Z,4.63
2018-06-25T19:02:56.719Z,8.10
2018-06-25T19:05:24.269Z,2.37
2018-06-25T19:07:51.746Z,7.10
2018-06-25T19:10:19.206Z,3.53
2018-06-25T19:12:46.829Z,2.67
2018-06-25T19:15:14.354Z,8.60
2018-06-25T19:17:42.023Z,7.17
2018-06-25T19:20:09.573Z,2.10
2018-06-25T19:22:37.182Z,4.17
2018-06-25T19:25:04.665Z,3.90
2018-06-25T19:27:32.297Z,5.03
2018-06-25T19:29:59.838Z,2.13
2018-06-25T19:32:27.374Z,2.30
2018-06-25T19:34:54.879Z,3.60
2018-06-25T19:37:22.455Z,9.53
2018-06-25T19:39:49.905Z,4.37
2018-06-25T19:42:17.375Z,4.67
2018-06-25T19:44:45.152Z,5.37
2018-06-25T19:47:12.654Z,3.70
2018-06-25T19:49:40.192Z,4.20
2018-06-25T19:52:07.697Z,2.50
2018-06-25T19:54:35.225Z,3.93
2018-06-25T19:57:02.775Z,7.13
2018-06-25T19:59:30.243Z,6.10
2018-06-25T20:01:57.808Z,4.50
2018-06-25T20:04:25.285Z,3.90
2018-06-25T20:06:52.757Z,2.40
2018-06-25T20:09:20.231Z,2.43
2018-06-25T20:11:47.815Z,3.60
2018-06-25T20:14:15.410Z,5.33
2018-06-25T20:16:42.986Z,6.47
2018-06-25T20:19:10.497Z,3.33
2018-06-25T20:21:38.068Z,3.97
2018-06-25T20:24:05.775Z,2.87
2018-06-25T20:26:33.318Z,3.27
2018-06-25T20:29:00.770Z,3.47
2018-06-25T20:31:28.242Z,6.27
2018-06-25T20:33:55.737Z,4.47
2018-06-25T20:36:23.544Z,3.80
2018-06-25T20:38:51.369Z,3.47
2018-06-25T20:41:18.826Z,5.13
2018-06-25T20:43:46.267Z,3.97
2018-06-25T20:46:13.750Z,5.40
2018-06-25T20:48:41.217Z,3.43
2018-06-25T20:51:08.786Z,3.23
2018-06-25T20:53:36.295Z,9.13
2018-06-25T20:56:03.816Z,4.07
2018-06-25T20:58:31.286Z,3.23
2018-06-25T21:00:58.798Z,5.93
2018-06-25T21:03:26.299Z,3.33
2018-06-25T21:05:53.870Z,2.73
2018-06-25T21:08:21.648Z,7.03
2018-06-25T21:10:49.224Z,3.03
2018-06-25T21:13:16.637Z,5.93
2018-06-25T21:15:44.192Z,3.30
2018-06-25T21:18:11.710Z,5.00
2018-06-25T21:20:39.290Z,9.03
2018-06-25T21:23:07.010Z,7.80
2018-06-25T21:25:34.530Z,6.30
2018-06-25T21:28:02.032Z,5.40
2018-06-25T21:30:29.565Z,6.33
2018-06-25T21:32:57.117Z,3.77
2018-06-25T21:35:24.646Z,3.23
2018-06-25T21:37:52.157Z,4.03
2018-06-25T21:40:19.658Z,7.43
2018-06-25T21:42:47.098Z,8.87
2018-06-25T21:45:14.614Z,8.43
2018-06-25T21:47:42.063Z,5.30
2018-06-25T21:50:09.665Z,6.87
2018-06-25T21:52:37.174Z,6.93
2018-06-25T21:55:04.952Z,7.43
2018-06-25T21:57:32.440Z,9.90
2018-06-25T21:59:59.925Z,4.80
2018-06-25T22:02:27.376Z,5.43
2018-06-25T22:04:54.859Z,3.93
2018-06-25T22:07:22.394Z,8.77
2018-06-25T22:09:49.911Z,8.00
2018-06-25T22:12:17.393Z,13.57
2018-06-25T22:14:44.897Z,9.20
2018-06-25T22:17:12.366Z,6.77
2018-06-25T22:19:39.777Z,9.13
2018-06-25T22:22:07.305Z,10.10
2018-06-25T22:24:34.803Z,9.43
2018-06-25T22:27:02.285Z,11.47
2018-06-25T22:29:29.738Z,7.60
2018-06-25T22:31:57.213Z,9.60
2018-06-25T22:34:24.665Z,12.63
2018-06-25T22:36:52.171Z,9.70
2018-06-25T22:39:19.666Z,9.80
2018-06-25T22:41:47.329Z,8.93
2018-06-25T22:44:14.853Z,9.40
2018-06-25T22:46:43.130Z,6.53
2018-06-25T22:49:10.614Z,10.17
2018-06-25T22:51:38.196Z,10.10
2018-06-25T22:54:06.519Z,6.40
2018-06-25T22:56:34.242Z,8.33
2018-06-25T22:59:01.683Z,12.07
2018-06-25T23:01:29.601Z,5.87
2018-06-25T23:03:57.295Z,8.07
2018-06-25T23:06:24.942Z,8.03
2018-06-25T23:08:52.415Z,11.40
2018-06-25T23:11:19.937Z,11.50
2018-06-25T23:13:47.535Z,10.77
2018-06-25T23:16:15.238Z,12.70
2018-06-25T23:18:42.782Z,9.63
2018-06-25T23:21:10.239Z,9.70
2018-06-25T23:23:37.647Z,10.73
2018-06-25T23:26:05.314Z,11.23
2018-06-25T23:28:32.742Z,13.70
2018-06-25T23:31:00.198Z,18.53
2018-06-25T23:33:27.752Z,10.60
2018-06-25T23:35:55.173Z,9.93
2018-06-25T23:38:22.671Z,12.70
2018-06-25T23:40:50.294Z,13.07
2018-06-25T23:43:17.825Z,10.43
2018-06-25T23:45:45.359Z,10.60
2018-06-25T23:48:12.883Z,12.70
2018-06-25T23:50:40.474Z,15.63
2018-06-25T23:53:07.941Z,8.40
2018-06-25T23:55:35.419Z,9.57
2018-06-25T23:58:02.928Z,9.80
